createdAt,value
2017-10-12T00:00:41.821Z,16.62
2017-10-12T00:03:10.262Z,16.39
2017-10-12T00:05:39.329Z,16.36
2017-10-12T00:08:07.953Z,16.11
2017-10-12T00:10:37.529Z,16.20
2017-10-12T00:13:05.963Z,16.19
2017-10-12T00:15:35.426Z,16.15
2017-10-12T00:18:04.016Z,16.20
2017-10-12T00:20:32.938Z,16.13
2017-10-12T00:23:01.368Z,16.47
2017-10-12T00:25:29.716Z,16.44
2017-10-12T00:27:59.128Z,16.54
2017-10-12T00:30:27.475Z,16.44
2017-10-12T00:32:56.113Z,16.40
2017-10-12T00:35:25.072Z,16.46
2017-10-12T00:37:54.246Z,16.23
2017-10-12T00:40:22.545Z,16.44
2017-10-12T00:42:52.156Z,16.37
2017-10-12T00:45:20.588Z,16.63
2017-10-12T00:47:49.177Z,16.49
2017-10-12T00:50:18.392Z,16.55
2017-10-12T00:52:46.862Z,16.52
2017-10-12T00:55:15.373Z,16.58
2017-10-12T00:57:44.785Z,16.48
2017-10-12T01:00:13.417Z,16.57
2017-10-12T01:02:42.152Z,16.75
2017-10-12T01:05:11.332Z,16.83
2017-10-12T01:07:40.890Z,16.67
2017-10-12T01:10:09.774Z,16.62
2017-10-12T01:12:38.142Z,16.77
2017-10-12T01:15:07.253Z,16.63
2017-10-12T01:17:35.569Z,16.50
2017-10-12T01:20:04.482Z,16.55
2017-10-12T01:22:33.933Z,16.52
2017-10-12T01:25:02.986Z,16.59
2017-10-12T01:27:32.030Z,16.44
2017-10-12T01:30:01.272Z,16.43
2017-10-12T01:32:30.862Z,16.57
2017-10-12T01:34:59.586Z,16.43
2017-10-12T01:37:28.922Z,16.22
2017-10-12T01:39:57.253Z,16.18
2017-10-12T01:42:26.540Z,16.00
2017-10-12T01:44:56.213Z,15.88
2017-10-12T01:47:25.712Z,15.87
2017-10-12T01:49:54.852Z,15.73
2017-10-12T01:52:24.876Z,15.61
2017-10-12T01:54:54.684Z,15.44
2017-10-12T01:57:23.147Z,15.75
2017-10-12T01:59:52.037Z,15.64
2017-10-12T02:02:21.043Z,15.62
2017-10-12T02:04:49.401Z,15.70
2017-10-12T02:07:18.599Z,15.45
2017-10-12T02:09:46.900Z,15.35
2017-10-12T02:12:15.796Z,15.26
2017-10-12T02:14:44.168Z,15.26
2017-10-12T02:17:13.158Z,15.41
2017-10-12T02:19:42.313Z,15.40
2017-10-12T02:22:12.207Z,15.46
2017-10-12T02:24:41.287Z,15.56
2017-10-12T02:27:10.819Z,15.53
2017-10-12T02:29:40.267Z,15.56
2017-10-12T02:32:08.616Z,15.48
2017-10-12T02:34:37.194Z,15.31
2017-10-12T02:37:06.364Z,15.42
2017-10-12T02:39:35.671Z,15.46
2017-10-12T02:42:03.994Z,15.29
2017-10-12T02:44:32.369Z,15.44
2017-10-12T02:47:01.515Z,15.80
2017-10-12T02:49:30.622Z,15.77
2017-10-12T02:52:00.832Z,15.91
2017-10-12T02:54:29.945Z,16.12
2017-10-12T02:56:59.028Z,15.82
2017-10-12T02:59:29.912Z,15.87
2017-10-12T03:01:58.240Z,15.59
2017-10-12T03:04:27.930Z,15.90
2017-10-12T03:06:57.008Z,15.53
2017-10-12T03:09:26.329Z,15.38
2017-10-12T03:11:55.379Z,15.49
2017-10-12T03:14:23.976Z,15.58
2017-10-12T03:16:52.279Z,15.48
2017-10-12T03:19:20.617Z,15.62
2017-10-12T03:21:48.961Z,15.75
2017-10-12T03:24:17.289Z,15.66
2017-10-12T03:26:45.624Z,15.80
2017-10-12T03:29:15.329Z,15.91
2017-10-12T03:31:45.620Z,16.03
2017-10-12T03:34:14.702Z,15.90
2017-10-12T03:36:43.692Z,15.89
2017-10-12T03:39:12.899Z,15.89
2017-10-12T03:41:41.217Z,15.93
2017-10-12T03:44:09.539Z,15.77
2017-10-12T03:46:38.446Z,15.94
2017-10-12T03:49:06.764Z,15.79
2017-10-12T03:51:35.572Z,15.81
2017-10-12T03:54:05.087Z,15.95
2017-10-12T03:56:33.407Z,16.02
2017-10-12T03:59:02.053Z,16.33
2017-10-12T04:01:32.029Z,16.33
2017-10-12T04:04:02.016Z,16.10
2017-10-12T04:06:30.363Z,16.42
2017-10-12T04:08:59.124Z,16.39
2017-10-12T04:11:27.907Z,16.22
2017-10-12T04:13:58.647Z,16.41
2017-10-12T04:16:26.959Z,16.24
2017-10-12T04:18:57.743Z,16.43
2017-10-12T04:21:26.503Z,16.52
2017-10-12T04:23:55.283Z,16.45
2017-10-12T04:26:23.634Z,16.14
2017-10-12T04:28:52.728Z,16.17
2017-10-12T04:31:21.840Z,16.39
2017-10-12T04:33:52.352Z,16.32
2017-10-12T04:36:21.197Z,16.19
2017-10-12T04:38:50.890Z,16.08
2017-10-12T04:41:20.387Z,16.19
2017-10-12T04:43:48.761Z,16.16
2017-10-12T04:46:18.113Z,16.12
2017-10-12T04:48:46.462Z,16.28
2017-10-12T04:51:14.820Z,16.15
2017-10-12T04:53:43.996Z,15.99
2017-10-12T04:56:14.793Z,15.97
2017-10-12T04:58:43.996Z,15.91
2017-10-12T05:01:12.325Z,15.96
2017-10-12T05:03:40.953Z,15.81
2017-10-12T05:06:10.509Z,16.06
2017-10-12T05:08:39.645Z,16.22
2017-10-12T05:11:08.342Z,16.24
2017-10-12T05:13:36.676Z,16.14
2017-10-12T05:16:05.156Z,16.06
2017-10-12T05:18:33.529Z,16.22
2017-10-12T05:21:03.184Z,15.89
2017-10-12T05:23:31.506Z,15.90
2017-10-12T05:26:01.021Z,15.98
2017-10-12T05:28:30.106Z,16.05
2017-10-12T05:30:58.429Z,15.92
2017-10-12T05:33:26.763Z,15.97
2017-10-12T05:35:55.898Z,15.76
2017-10-12T05:38:26.150Z,15.92
2017-10-12T05:40:55.332Z,16.01
2017-10-12T05:43:24.446Z,16.03
2017-10-12T05:45:52.754Z,15.94
2017-10-12T05:48:21.969Z,15.90
2017-10-12T05:50:51.052Z,15.90
2017-10-12T05:53:20.185Z,16.17
2017-10-12T16:05:47.262Z,16.54
2017-10-12T16:08:15.620Z,16.84
2017-10-12T16:10:43.974Z,17.01
2017-10-12T16:13:13.874Z,16.91
2017-10-12T16:15:42.233Z,16.94
2017-10-12T16:18:10.790Z,16.92
2017-10-12T16:20:39.773Z,16.78
2017-10-12T16:23:09.172Z,16.85
2017-10-12T16:25:39.362Z,16.91
2017-10-12T16:28:08.620Z,16.94
2017-10-12T16:30:36.971Z,16.74
2017-10-12T16:35:38.059Z,16.55
2017-10-12T16:38:06.494Z,16.62
2017-10-12T16:40:35.639Z,16.51
2017-10-12T16:45:29.067Z,16.58
2017-10-12T16:47:57.401Z,16.53
2017-10-12T16:50:56.321Z,16.54
2017-10-12T16:52:55.926Z,16.33
2017-10-12T16:57:52.602Z,16.22
2017-10-12T17:00:21.869Z,16.07
2017-10-12T17:02:50.221Z,15.94
2017-10-12T17:05:18.631Z,15.76
2017-10-12T17:07:47.876Z,15.99
2017-10-12T17:10:17.892Z,15.85
2017-10-12T17:12:46.649Z,16.00
2017-10-12T17:15:15.053Z,15.84
2017-10-12T17:17:46.362Z,15.94
2017-10-12T17:20:14.807Z,15.99
2017-10-12T17:22:43.968Z,15.88
2017-10-12T17:25:12.327Z,15.98
2017-10-12T17:27:40.673Z,15.94
2017-10-12T17:30:09.342Z,15.83
2017-10-12T17:32:38.455Z,15.65
2017-10-12T17:35:07.233Z,15.52
2017-10-12T17:37:35.605Z,15.58
2017-10-12T17:40:04.927Z,15.55
2017-10-12T17:42:34.063Z,15.31
2017-10-12T17:45:02.696Z,15.24
2017-10-12T17:47:31.059Z,15.25
2017-10-12T17:50:02.039Z,15.23
2017-10-12T17:52:30.630Z,15.13
2017-10-12T17:54:59.764Z,15.08
2017-10-12T17:57:28.111Z,15.16
2017-10-12T17:59:57.842Z,15.16
2017-10-12T18:02:26.982Z,15.09
2017-10-12T18:04:55.318Z,14.95
2017-10-12T18:07:24.273Z,14.99
2017-10-12T18:09:52.654Z,15.10
2017-10-12T18:12:21.674Z,15.16
2017-10-12T18:14:51.356Z,15.34
2017-10-12T18:17:20.556Z,15.36
2017-10-12T18:19:49.027Z,15.39
2017-10-12T18:22:22.062Z,15.01
2017-10-12T18:24:50.459Z,15.04
2017-10-12T18:27:19.572Z,15.20
2017-10-12T18:29:48.738Z,15.19
2017-10-12T18:32:17.862Z,15.01
2017-10-12T18:34:46.853Z,14.98
2017-10-12T18:37:16.052Z,15.06
2017-10-12T18:39:47.004Z,15.10
2017-10-12T18:42:15.339Z,14.90
2017-10-12T18:44:44.293Z,14.98
2017-10-12T18:47:12.680Z,14.82
2017-10-12T18:49:42.367Z,14.71
2017-10-12T18:52:10.741Z,14.87
2017-10-12T18:54:40.553Z,14.79
2017-10-12T18:57:08.942Z,14.84
2017-10-12T18:59:38.556Z,14.84
2017-10-12T19:02:07.183Z,14.84
2017-10-12T19:04:35.937Z,14.77
2017-10-12T19:07:05.107Z,14.84
2017-10-12T19:09:35.015Z,14.90
2017-10-12T19:12:04.710Z,14.91
2017-10-12T19:14:33.096Z,14.94
2017-10-12T19:17:02.161Z,14.90
2017-10-12T19:19:31.409Z,14.81
2017-10-12T19:22:00.781Z,14.85
2017-10-12T19:24:29.998Z,14.74
2017-10-12T19:26:59.548Z,14.67
2017-10-12T19:29:28.307Z,14.44
2017-10-12T19:31:57.664Z,14.56
2017-10-12T19:34:26.234Z,14.69
2017-10-12T19:36:54.630Z,14.67
2017-10-12T19:39:23.650Z,14.49
2017-10-12T19:41:53.674Z,14.58
2017-10-12T19:44:24.298Z,14.56
2017-10-12T19:46:53.620Z,14.38
2017-10-12T19:49:22.296Z,14.47
2017-10-12T19:51:51.451Z,14.54
2017-10-12T19:54:19.796Z,14.59
2017-10-12T19:56:48.166Z,14.75
2017-10-12T19:59:16.545Z,14.63
2017-10-12T20:01:44.912Z,14.37
2017-10-12T20:04:13.735Z,14.47
2017-10-12T20:06:42.400Z,14.21
2017-10-12T20:09:10.789Z,14.23
2017-10-12T20:11:39.145Z,14.24
2017-10-12T20:16:38.569Z,14.25
2017-10-12T20:19:07.721Z,14.32
2017-10-12T20:21:36.106Z,13.96
2017-10-12T20:26:34.510Z,14.03
2017-10-12T20:31:32.784Z,13.76
2017-10-12T20:34:01.202Z,13.82
2017-10-12T20:36:29.593Z,13.76
2017-10-12T20:38:57.945Z,13.95
2017-10-12T20:41:27.993Z,14.05
2017-10-12T20:43:56.366Z,14.12
2017-10-12T20:46:25.512Z,13.90
2017-10-12T20:48:53.920Z,13.99
2017-10-12T20:51:22.852Z,14.10
2017-10-12T20:53:51.915Z,14.15
2017-10-12T20:56:20.292Z,13.95
2017-10-12T20:58:50.035Z,13.97
2017-10-12T21:01:19.119Z,13.86
2017-10-12T21:03:47.505Z,13.96
2017-10-12T21:06:15.962Z,14.09
2017-10-12T21:08:44.722Z,14.10
2017-10-12T21:11:13.107Z,14.03
2017-10-12T21:13:42.892Z,13.69
2017-10-12T21:16:12.002Z,13.90
2017-10-12T21:18:40.388Z,13.56
2017-10-12T21:21:08.794Z,13.74
2017-10-12T21:23:37.160Z,13.84
2017-10-12T21:26:06.195Z,13.74
2017-10-12T21:28:36.034Z,13.80
2017-10-12T21:31:04.852Z,13.83
2017-10-12T21:33:33.611Z,13.70
2017-10-12T21:36:03.512Z,13.63
2017-10-12T21:38:32.645Z,13.61
2017-10-12T21:41:01.193Z,13.62
2017-10-12T21:43:29.587Z,13.66
2017-10-12T21:45:57.993Z,13.81
2017-10-12T21:48:26.364Z,13.67
2017-10-12T21:50:54.774Z,13.49
2017-10-12T21:53:23.153Z,13.60
2017-10-12T21:55:52.429Z,13.55
2017-10-12T21:58:21.998Z,13.54
2017-10-12T22:00:51.258Z,13.41
2017-10-12T22:03:20.441Z,13.61
2017-10-12T22:05:49.745Z,13.55
2017-10-12T22:08:18.122Z,13.53
2017-10-12T22:10:47.251Z,13.72
2017-10-12T22:13:17.409Z,13.59
2017-10-12T22:15:46.122Z,13.60
2017-10-12T22:18:14.763Z,13.58
2017-10-12T22:20:44.307Z,13.61
2017-10-12T22:23:14.057Z,13.77
2017-10-12T22:25:44.659Z,13.83
2017-10-12T22:28:13.866Z,13.76
2017-10-12T22:30:42.254Z,13.65
2017-10-12T22:33:11.459Z,13.69
2017-10-12T22:35:40.626Z,13.58
2017-10-12T22:38:08.995Z,13.62
2017-10-12T22:40:40.265Z,13.62
2017-10-12T22:43:08.937Z,13.48
2017-10-12T22:45:38.292Z,13.57
2017-10-12T22:48:07.541Z,13.62
2017-10-12T22:50:36.447Z,13.64
2017-10-12T22:53:05.701Z,13.73
2017-10-12T22:55:34.337Z,13.38
2017-10-12T22:58:03.419Z,13.63
2017-10-12T23:00:32.210Z,13.67
2017-10-12T23:03:00.849Z,13.74
2017-10-12T23:05:31.000Z,13.56
2017-10-12T23:07:59.652Z,13.70
2017-10-12T23:10:29.346Z,13.61
2017-10-12T23:12:58.538Z,13.65
2017-10-12T23:15:26.915Z,13.67
2017-10-12T23:17:56.248Z,13.52
2017-10-12T23:20:25.917Z,13.53
2017-10-12T23:22:54.302Z,13.52
2017-10-12T23:25:22.694Z,13.57
2017-10-12T23:27:53.860Z,13.49
2017-10-12T23:30:23.808Z,13.51
2017-10-12T23:32:54.036Z,13.51
2017-10-12T23:35:23.497Z,13.32
2017-10-12T23:37:52.635Z,13.28
2017-10-12T23:40:21.920Z,13.15
2017-10-12T23:42:51.243Z,13.09
2017-10-12T23:45:19.885Z,13.47
2017-10-12T23:47:49.909Z,13.46
2017-10-12T23:50:18.402Z,13.32
2017-10-12T23:52:46.809Z,13.30
2017-10-12T23:55:15.895Z,13.43
2017-10-12T23:57:45.201Z,13.46
